Louise, Mississippi
Current Conditions -  °F | °C
As of 4:53 AM on Saturday 25 Oct 2014 (Local Time) from KGLH Reporting Station
Clear Clear  
Wind Chill: 52°   Ceiling: Unl
Heat Index: 52°   Visibility: 8mi
Dew Point: 50°   Wind: 3mph
Humidity: 93%   Direction: 230°SW
Pressure: 30.11"   Gusts: NA
Location:  32.98°N, 90.59°W
Report Text: KGLH 250953Z AUTO 23003KT 8SM CLR 11/10 A3011 RMK AO2 SLP200 T01110100
Loading
Personal Weather Stations






























Interactive Weather Map New forecast layout! Learn more

10-Day Weather Forecast

Advertisements
Track Severe Weather on mobile